createdAt,value
2023-02-21T00:00:50.698Z,21.75
2023-02-21T00:03:14.308Z,21.33
2023-02-21T00:05:38.002Z,22.80
2023-02-21T00:08:03.393Z,23.83
2023-02-21T00:10:28.180Z,23.27
2023-02-21T00:12:52.104Z,22.02
2023-02-21T00:15:15.414Z,24.13
2023-02-21T00:17:39.344Z,22.25
2023-02-21T00:20:03.007Z,23.60
2023-02-21T00:22:27.035Z,22.95
2023-02-21T00:24:51.980Z,25.55
2023-02-21T00:27:15.788Z,26.42
2023-02-21T00:29:39.369Z,24.58
2023-02-21T00:32:02.781Z,25.48
2023-02-21T00:34:26.039Z,25.38
2023-02-21T00:36:49.436Z,24.33
2023-02-21T00:39:13.490Z,24.45
2023-02-21T00:41:38.878Z,22.88
2023-02-21T00:44:02.893Z,22.08
2023-02-21T00:46:26.733Z,21.95
2023-02-21T00:48:51.370Z,19.40
2023-02-21T00:51:15.123Z,20.63
2023-02-21T00:53:38.708Z,20.70
2023-02-21T00:56:02.212Z,19.08
2023-02-21T00:58:27.431Z,18.70
2023-02-21T01:00:51.350Z,21.08
2023-02-21T01:03:14.610Z,16.77
2023-02-21T01:05:38.173Z,17.95
2023-02-21T01:08:01.697Z,18.15
2023-02-21T01:10:25.456Z,19.10
2023-02-21T01:12:48.877Z,20.40
2023-02-21T01:15:15.616Z,19.38
2023-02-21T01:17:39.216Z,18.17
2023-02-21T01:20:03.376Z,18.00
2023-02-21T01:22:27.594Z,18.08
2023-02-21T01:24:51.314Z,18.85
2023-02-21T01:27:14.470Z,18.45
2023-02-21T01:29:38.325Z,19.73
2023-02-21T01:32:03.596Z,20.73
2023-02-21T01:34:27.319Z,20.00
2023-02-21T01:36:50.577Z,19.80
2023-02-21T01:39:14.859Z,17.63
2023-02-21T01:41:38.376Z,18.55
2023-02-21T01:44:17.914Z,17.35
2023-02-21T01:46:41.634Z,19.45
2023-02-21T01:49:08.680Z,18.88
2023-02-21T01:51:33.629Z,17.88
2023-02-21T01:53:57.244Z,18.27
2023-02-21T01:56:21.081Z,18.83
2023-02-21T01:58:46.423Z,18.50
2023-02-21T02:01:10.013Z,17.45
2023-02-21T02:03:35.962Z,18.30
2023-02-21T02:06:02.758Z,17.23
2023-02-21T02:08:26.628Z,19.10
2023-02-21T02:10:50.242Z,16.92
2023-02-21T02:13:15.346Z,17.45
2023-02-21T02:15:45.585Z,17.10
2023-02-21T02:18:08.221Z,17.02
2023-02-21T02:20:50.362Z,17.75
2023-02-21T02:23:30.678Z,17.23
2023-02-21T02:25:59.980Z,17.40
2023-02-21T02:28:36.181Z,17.05
2023-02-21T02:31:22.829Z,16.38
2023-02-21T02:34:09.087Z,17.40
2023-02-21T02:36:22.002Z,16.27
2023-02-21T02:38:36.968Z,16.08
2023-02-21T02:40:54.238Z,14.98
2023-02-21T02:43:13.805Z,14.60
2023-02-21T02:45:29.897Z,14.88
2023-02-21T02:47:40.559Z,12.75
2023-02-21T02:49:50.146Z,12.98
2023-02-21T02:51:58.916Z,12.27
2023-02-21T02:54:07.583Z,11.98
2023-02-21T02:56:17.219Z,12.80
2023-02-21T02:58:25.732Z,13.50
2023-02-21T03:00:33.682Z,13.57
2023-02-21T03:03:02.965Z,13.18
2023-02-21T03:05:24.908Z,13.80
2023-02-21T03:07:44.735Z,13.07
2023-02-21T03:10:01.240Z,12.85
2023-02-21T03:12:19.428Z,12.07
2023-02-21T03:14:30.915Z,12.45
2023-02-21T03:16:43.001Z,11.65
2023-02-21T03:21:01.668Z,12.77
2023-02-21T03:23:11.921Z,12.10
2023-02-21T03:25:21.424Z,12.32
2023-02-21T03:27:30.027Z,13.32
2023-02-21T03:29:49.040Z,12.55
2023-02-21T03:32:01.300Z,11.98
2023-02-21T03:34:09.028Z,11.68
2023-02-21T03:36:17.796Z,11.95
2023-02-21T03:38:27.129Z,11.88
2023-02-21T03:40:37.088Z,12.38
2023-02-21T03:42:45.283Z,12.50
2023-02-21T03:44:53.851Z,12.40
2023-02-21T03:47:02.409Z,14.07
2023-02-21T03:49:09.703Z,13.20
2023-02-21T03:51:17.119Z,11.55
2023-02-21T03:53:25.951Z,12.90
2023-02-21T03:55:33.250Z,12.50
2023-02-21T03:57:46.432Z,13.20
2023-02-21T03:59:54.820Z,12.80
2023-02-21T04:02:02.842Z,12.90
2023-02-21T04:04:12.974Z,12.95
2023-02-21T04:06:20.360Z,12.00
2023-02-21T04:08:39.281Z,12.75
2023-02-21T04:10:52.556Z,13.30
2023-02-21T04:13:03.050Z,12.90
2023-02-21T04:15:15.812Z,11.77
2023-02-21T04:17:25.107Z,12.75
2023-02-21T04:19:33.235Z,12.52
2023-02-21T04:21:42.123Z,12.52
2023-02-21T04:23:51.862Z,12.43
2023-02-21T04:25:59.202Z,12.02
2023-02-21T04:28:17.232Z,12.98
2023-02-21T04:30:25.444Z,13.05
2023-02-21T04:32:33.040Z,13.30
2023-02-21T04:34:46.254Z,12.88
2023-02-21T04:36:53.287Z,12.63
2023-02-21T04:39:02.369Z,11.57
2023-02-21T04:41:10.000Z,12.23
2023-02-21T04:43:17.898Z,13.25
2023-02-21T04:45:24.861Z,12.43
2023-02-21T04:47:33.799Z,12.68
2023-02-21T04:49:40.673Z,12.45
2023-02-21T04:51:47.759Z,12.32
2023-02-21T04:53:55.444Z,12.05
2023-02-21T04:56:04.419Z,11.70
2023-02-21T04:58:11.448Z,12.32
2023-02-21T05:00:20.015Z,10.98
2023-02-21T05:02:26.987Z,11.57
2023-02-21T05:04:34.338Z,11.30
2023-02-21T05:06:41.249Z,12.35
2023-02-21T05:08:48.530Z,11.60
2023-02-21T05:10:56.070Z,11.88
2023-02-21T05:13:05.454Z,11.35
2023-02-21T05:15:13.711Z,12.13
2023-02-21T05:17:21.301Z,12.70
2023-02-21T05:19:29.968Z,11.65
2023-02-21T05:21:39.915Z,12.32
2023-02-21T05:23:56.680Z,11.93
2023-02-21T05:26:04.270Z,11.57
2023-02-21T05:28:12.928Z,10.68
2023-02-21T05:30:21.807Z,11.10
2023-02-21T05:32:30.658Z,11.30
2023-02-21T05:34:37.855Z,11.68
2023-02-21T05:36:44.932Z,12.15
2023-02-21T05:38:53.835Z,10.50
2023-02-21T05:41:01.293Z,9.85
2023-02-21T05:43:08.731Z,10.40
2023-02-21T05:45:17.498Z,11.77
2023-02-21T05:47:24.585Z,10.02
2023-02-21T05:49:31.863Z,10.55
2023-02-21T05:51:39.814Z,10.43
2023-02-21T05:53:46.829Z,10.70
2023-02-21T05:55:53.716Z,10.43
2023-02-21T05:58:01.098Z,10.75
2023-02-21T06:00:09.002Z,10.48
2023-02-21T06:02:20.802Z,11.85
2023-02-21T06:04:28.120Z,11.30
2023-02-21T06:06:35.456Z,10.10
2023-02-21T06:08:50.178Z,9.73
2023-02-21T06:10:57.397Z,10.65
2023-02-21T06:13:04.425Z,11.30
2023-02-21T06:15:13.869Z,10.57
2023-02-21T06:17:22.473Z,10.57
2023-02-21T06:19:31.077Z,10.15
2023-02-21T06:21:39.497Z,9.95
2023-02-21T06:23:46.730Z,10.00
2023-02-21T06:25:54.117Z,9.82
2023-02-21T06:28:01.663Z,8.43
2023-02-21T06:30:09.949Z,8.95
2023-02-21T06:32:16.934Z,9.32
2023-02-21T06:34:26.532Z,10.18
2023-02-21T06:36:33.969Z,9.32
2023-02-21T06:38:40.948Z,9.73
2023-02-21T06:40:48.302Z,10.10
2023-02-21T06:42:55.262Z,9.50
2023-02-21T06:45:02.703Z,10.00
2023-02-21T06:47:09.731Z,9.75
2023-02-21T06:49:16.914Z,9.35
2023-02-21T06:51:30.278Z,11.27
2023-02-21T06:53:37.574Z,10.85
2023-02-21T06:55:44.616Z,9.85
2023-02-21T06:57:51.783Z,9.40
2023-02-21T06:59:59.734Z,10.75
2023-02-21T07:02:07.118Z,9.50
2023-02-21T07:04:14.259Z,9.18
2023-02-21T07:06:21.684Z,10.63
2023-02-21T07:08:30.606Z,9.48
2023-02-21T07:10:37.893Z,9.35
2023-02-21T07:12:45.128Z,10.63
2023-02-21T07:14:52.086Z,8.88
2023-02-21T07:17:00.257Z,8.65
2023-02-21T07:19:07.342Z,10.20
2023-02-21T07:21:15.564Z,9.90
2023-02-21T07:23:22.926Z,9.90
2023-02-21T07:25:32.708Z,9.05
2023-02-21T07:27:39.651Z,8.32
2023-02-21T07:29:46.841Z,9.07
2023-02-21T07:31:53.947Z,10.13
2023-02-21T07:34:02.247Z,9.20
2023-02-21T07:36:09.650Z,9.23
2023-02-21T07:38:24.826Z,9.73
2023-02-21T07:40:33.590Z,8.80
2023-02-21T07:42:41.129Z,8.90
2023-02-21T07:44:48.977Z,9.55
2023-02-21T07:46:56.118Z,10.55
2023-02-21T07:49:04.352Z,10.57
2023-02-21T07:51:13.380Z,9.90
2023-02-21T07:53:22.104Z,10.25
2023-02-21T07:55:29.800Z,9.25
2023-02-21T07:57:39.699Z,8.88
2023-02-21T07:59:47.532Z,9.02
2023-02-21T08:01:55.415Z,10.25
2023-02-21T08:04:04.590Z,9.25
2023-02-21T08:06:14.106Z,9.65
2023-02-21T08:08:21.652Z,9.13
2023-02-21T08:10:30.966Z,8.90
2023-02-21T08:12:40.042Z,9.40
2023-02-21T08:14:47.731Z,8.27
2023-02-21T08:16:55.121Z,8.93
2023-02-21T08:19:03.336Z,8.52
2023-02-21T08:21:13.886Z,8.65
2023-02-21T08:23:21.863Z,8.93
2023-02-21T08:25:28.824Z,9.60
2023-02-21T08:27:37.640Z,8.80
2023-02-21T08:29:44.923Z,9.27
2023-02-21T08:31:52.873Z,8.50
2023-02-21T08:33:59.904Z,9.35
2023-02-21T08:36:07.491Z,8.40
2023-02-21T08:38:14.316Z,8.35
2023-02-21T08:40:23.595Z,8.88
2023-02-21T08:42:30.780Z,8.55
2023-02-21T08:44:39.802Z,8.68
2023-02-21T08:46:49.665Z,8.27
2023-02-21T08:48:57.231Z,8.30
2023-02-21T08:51:04.273Z,9.30
2023-02-21T08:53:13.185Z,9.13
2023-02-21T08:55:22.218Z,9.30
2023-02-21T08:57:30.061Z,8.63
2023-02-21T08:59:40.500Z,8.50
2023-02-21T09:01:47.850Z,9.65
2023-02-21T09:03:54.935Z,10.10
2023-02-21T09:06:03.805Z,10.07
2023-02-21T09:08:11.656Z,9.35
2023-02-21T09:10:19.552Z,10.02
2023-02-21T09:12:26.476Z,10.70
2023-02-21T09:14:33.816Z,10.18
2023-02-21T09:16:43.071Z,9.93
2023-02-21T09:18:58.725Z,10.30
2023-02-21T09:21:05.701Z,10.98
2023-02-21T09:23:13.088Z,10.10
2023-02-21T09:25:21.865Z,9.90
2023-02-21T09:27:37.509Z,9.52
2023-02-21T09:29:46.674Z,10.27
2023-02-21T09:31:55.917Z,9.85
2023-02-21T09:34:02.927Z,9.75
2023-02-21T09:36:11.187Z,9.57
2023-02-21T09:38:19.185Z,10.38
2023-02-21T09:40:39.183Z,9.88
2023-02-21T09:42:46.230Z,9.20
2023-02-21T09:44:53.881Z,9.13
2023-02-21T09:47:06.256Z,9.98
2023-02-21T09:49:20.436Z,9.88
2023-02-21T09:51:28.029Z,10.02
2023-02-21T09:53:39.255Z,10.15
2023-02-21T09:55:47.063Z,9.90
2023-02-21T09:57:54.385Z,10.32
2023-02-21T10:00:01.391Z,10.30
2023-02-21T10:02:27.185Z,10.40
2023-02-21T10:04:47.091Z,10.05
2023-02-21T10:06:59.153Z,9.38
2023-02-21T10:09:20.720Z,9.43
2023-02-21T10:11:40.853Z,10.15
2023-02-21T10:13:56.060Z,9.77
2023-02-21T10:16:08.853Z,10.05
2023-02-21T10:18:28.716Z,9.13
2023-02-21T10:20:42.713Z,9.73
2023-02-21T10:22:53.320Z,9.35
2023-02-21T10:25:00.606Z,9.40
2023-02-21T10:27:11.113Z,10.13
2023-02-21T10:29:26.636Z,9.35
2023-02-21T10:31:37.850Z,9.30
2023-02-21T10:33:46.787Z,10.18
2023-02-21T10:35:56.070Z,8.63
2023-02-21T10:38:05.554Z,9.02
2023-02-21T10:40:31.578Z,8.57
2023-02-21T10:42:43.728Z,9.10
2023-02-21T10:44:51.112Z,8.80
2023-02-21T10:47:04.540Z,8.35
2023-02-21T10:49:32.364Z,8.65
2023-02-21T10:51:39.542Z,8.73
2023-02-21T10:53:47.487Z,8.50
2023-02-21T10:56:12.205Z,7.95
2023-02-21T10:58:29.600Z,9.32
2023-02-21T11:00:39.706Z,7.97
2023-02-21T11:02:51.082Z,8.68
2023-02-21T11:05:11.165Z,8.32
2023-02-21T11:07:18.250Z,8.68
2023-02-21T11:09:38.692Z,8.57
2023-02-21T11:11:46.432Z,9.45
2023-02-21T11:14:10.971Z,10.25
2023-02-21T11:16:23.222Z,9.25
2023-02-21T11:18:30.460Z,9.65
2023-02-21T11:20:39.070Z,9.25
2023-02-21T11:22:50.349Z,10.73
2023-02-21T11:25:09.510Z,10.02
2023-02-21T11:27:17.772Z,10.00
2023-02-21T11:29:28.125Z,10.23
2023-02-21T11:31:36.312Z,10.07
2023-02-21T11:33:45.871Z,10.57
2023-02-21T11:35:57.093Z,10.98
2023-02-21T11:38:06.224Z,10.97
2023-02-21T11:40:31.427Z,11.10
2023-02-21T11:42:38.404Z,11.50
2023-02-21T11:44:46.311Z,12.85
2023-02-21T11:46:58.355Z,13.45
2023-02-21T11:49:11.573Z,12.85
2023-02-21T11:51:33.909Z,13.57
2023-02-21T11:53:45.649Z,14.25
2023-02-21T11:56:00.405Z,17.88
2023-02-21T11:58:18.858Z,11.43
2023-02-21T12:00:33.457Z,16.95
2023-02-21T12:03:07.721Z,17.70
2023-02-21T12:05:30.600Z,13.10
2023-02-21T12:07:49.021Z,14.23
2023-02-21T12:10:03.158Z,14.75
2023-02-21T12:12:22.427Z,14.38
2023-02-21T12:14:42.918Z,13.40
2023-02-21T12:17:01.875Z,15.55
2023-02-21T12:19:24.470Z,17.50
2023-02-21T12:21:54.269Z,16.35
2023-02-21T12:24:10.986Z,15.98
2023-02-21T12:26:31.380Z,14.55
2023-02-21T12:28:52.539Z,15.77
2023-02-21T12:31:15.662Z,15.35
2023-02-21T12:33:34.140Z,15.25
2023-02-21T12:36:13.633Z,16.10
2023-02-21T12:38:29.261Z,17.35
2023-02-21T12:40:46.100Z,16.98
2023-02-21T12:43:08.360Z,16.40
2023-02-21T12:45:38.270Z,19.23
2023-02-21T12:47:52.057Z,16.45
2023-02-21T12:50:03.895Z,17.25
2023-02-21T12:52:19.069Z,17.10
2023-02-21T12:54:33.366Z,18.23
2023-02-21T12:56:49.565Z,17.55
2023-02-21T12:59:01.656Z,17.73
2023-02-21T13:01:18.247Z,18.27
2023-02-21T13:03:43.360Z,21.42
2023-02-21T13:05:52.930Z,18.85
2023-02-21T13:08:04.983Z,19.75
2023-02-21T13:10:20.474Z,21.10
2023-02-21T13:12:33.788Z,21.45
2023-02-21T13:14:45.376Z,21.38
2023-02-21T13:16:55.374Z,22.73
2023-02-21T13:19:06.804Z,24.23
2023-02-21T13:21:27.504Z,25.63
2023-02-21T13:24:07.452Z,26.38
2023-02-21T13:26:36.037Z,27.50
2023-02-21T13:28:46.955Z,28.45
2023-02-21T13:30:57.832Z,35.15
2023-02-21T13:33:05.466Z,38.05
2023-02-21T13:35:13.927Z,34.75
2023-02-21T13:37:23.627Z,32.78
2023-02-21T13:39:37.585Z,27.88
2023-02-21T13:41:47.957Z,26.42
2023-02-21T13:43:57.709Z,31.98
2023-02-21T13:46:44.382Z,31.35
2023-02-21T13:49:34.763Z,28.83
2023-02-21T13:52:17.035Z,22.70
2023-02-21T13:54:27.219Z,25.00
2023-02-21T13:56:47.915Z,24.45
2023-02-21T13:59:17.118Z,24.02
2023-02-21T14:01:52.762Z,24.13
2023-02-21T14:04:00.414Z,23.88
2023-02-21T14:06:43.118Z,23.35
2023-02-21T14:08:52.808Z,23.08
2023-02-21T14:11:01.937Z,23.25
2023-02-21T14:13:20.840Z,24.25
2023-02-21T14:15:45.123Z,24.33
2023-02-21T14:17:54.511Z,24.77
2023-02-21T14:20:03.790Z,23.30
2023-02-21T14:22:17.524Z,22.77
2023-02-21T14:24:27.016Z,24.35
2023-02-21T14:26:48.987Z,22.17
2023-02-21T14:29:14.871Z,22.30
2023-02-21T14:32:06.338Z,24.13
2023-02-21T14:34:16.992Z,25.15
2023-02-21T14:36:25.821Z,24.88
2023-02-21T14:38:39.957Z,28.13
2023-02-21T14:41:05.111Z,27.88
2023-02-21T14:43:35.638Z,28.80
2023-02-21T14:45:59.573Z,29.15
2023-02-21T14:48:31.761Z,29.50
2023-02-21T14:50:57.753Z,28.80
2023-02-21T14:53:53.476Z,30.23
2023-02-21T14:56:43.356Z,30.88
2023-02-21T14:59:16.095Z,31.05
2023-02-21T15:01:46.363Z,33.28
2023-02-21T15:03:57.736Z,32.28
2023-02-21T15:06:11.934Z,33.15
2023-02-21T15:08:22.034Z,34.50
2023-02-21T15:10:30.854Z,34.22
2023-02-21T15:12:42.494Z,34.28
2023-02-21T15:17:01.258Z,33.92
2023-02-21T15:19:08.845Z,35.22
2023-02-21T15:21:22.074Z,35.88
2023-02-21T15:23:31.574Z,36.15
2023-02-21T15:25:38.838Z,36.13
2023-02-21T15:28:04.604Z,37.35
2023-02-21T15:30:20.078Z,35.83
2023-02-21T15:32:27.318Z,37.38
2023-02-21T15:34:37.721Z,36.75
2023-02-21T15:36:46.592Z,36.63
2023-02-21T15:38:55.977Z,35.38
2023-02-21T15:41:09.340Z,34.83
2023-02-21T15:43:27.986Z,34.72
2023-02-21T15:45:38.549Z,33.92
2023-02-21T15:47:45.846Z,33.63
2023-02-21T15:50:03.426Z,32.40
2023-02-21T15:52:28.523Z,31.70
2023-02-21T15:54:36.524Z,29.38
2023-02-21T15:56:43.654Z,27.88
2023-02-21T15:59:21.461Z,28.23
2023-02-21T16:01:28.500Z,25.42
2023-02-21T16:03:38.888Z,25.35
2023-02-21T16:05:46.020Z,25.42
2023-02-21T16:07:56.273Z,24.73
2023-02-21T16:10:04.837Z,25.13
2023-02-21T16:12:29.785Z,24.83
2023-02-21T16:14:44.248Z,24.05
2023-02-21T16:16:55.004Z,25.10
2023-02-21T16:19:02.398Z,24.42
2023-02-21T16:21:11.518Z,24.17
2023-02-21T16:23:28.746Z,24.38
2023-02-21T16:25:35.979Z,22.73
2023-02-21T16:27:44.481Z,23.23
2023-02-21T16:29:51.613Z,23.30
2023-02-21T16:31:58.967Z,22.63
2023-02-21T16:34:06.182Z,22.00
2023-02-21T16:36:21.913Z,22.83
2023-02-21T16:38:31.046Z,21.10
2023-02-21T16:40:39.092Z,22.27
2023-02-21T16:42:46.071Z,21.63
2023-02-21T16:44:53.210Z,22.13
2023-02-21T16:47:01.370Z,21.65
2023-02-21T16:49:08.644Z,22.52
2023-02-21T16:51:17.669Z,21.35
2023-02-21T16:53:26.126Z,21.80
2023-02-21T16:55:35.822Z,20.90
2023-02-21T16:57:43.151Z,21.38
2023-02-21T16:59:50.127Z,20.85
2023-02-21T17:01:57.380Z,21.38
2023-02-21T17:04:06.080Z,19.70
2023-02-21T17:06:20.739Z,19.92
2023-02-21T17:08:28.693Z,21.52
2023-02-21T17:10:37.676Z,18.77
2023-02-21T17:12:44.520Z,18.52
2023-02-21T17:14:51.770Z,18.35
2023-02-21T17:16:58.796Z,17.38
2023-02-21T17:19:05.825Z,16.67
2023-02-21T17:21:12.803Z,15.43
2023-02-21T17:23:20.134Z,15.32
2023-02-21T17:25:27.724Z,16.40
2023-02-21T17:27:36.852Z,16.13
2023-02-21T17:29:44.544Z,15.20
2023-02-21T17:31:56.530Z,15.30
2023-02-21T17:34:03.570Z,14.30
2023-02-21T17:36:11.467Z,14.85
2023-02-21T17:38:18.288Z,13.75
2023-02-21T17:40:26.650Z,13.93
2023-02-21T17:42:35.276Z,14.75
2023-02-21T17:44:48.297Z,13.57
2023-02-21T17:46:57.967Z,14.27
2023-02-21T17:49:05.220Z,14.70
2023-02-21T17:51:12.215Z,13.32
2023-02-21T17:53:19.610Z,14.07
2023-02-21T17:55:30.906Z,14.00
2023-02-21T17:57:41.622Z,13.95
2023-02-21T17:59:48.491Z,13.20
2023-02-21T18:01:57.902Z,13.80
2023-02-21T18:04:05.168Z,14.40
2023-02-21T18:06:11.951Z,14.45
2023-02-21T18:08:20.838Z,12.90
2023-02-21T18:10:28.887Z,13.32
2023-02-21T18:12:37.983Z,14.23
2023-02-21T18:14:44.838Z,13.82
2023-02-21T18:16:52.175Z,13.57
2023-02-21T18:18:58.868Z,13.40
2023-02-21T18:21:06.691Z,13.40
2023-02-21T18:23:13.335Z,12.88
2023-02-21T18:25:22.385Z,14.05
2023-02-21T18:27:30.120Z,13.60
2023-02-21T18:29:38.683Z,13.10
2023-02-21T18:31:45.405Z,13.15
2023-02-21T18:33:53.650Z,12.95
2023-02-21T18:36:00.963Z,14.27
2023-02-21T18:38:07.828Z,14.13
2023-02-21T18:40:16.505Z,14.40
2023-02-21T18:42:24.753Z,13.85
2023-02-21T18:44:32.013Z,13.95
2023-02-21T18:46:45.320Z,14.75
2023-02-21T18:48:53.629Z,14.52
2023-02-21T18:51:00.599Z,14.63
2023-02-21T18:53:07.460Z,14.45
2023-02-21T18:55:14.551Z,13.68
2023-02-21T18:57:21.997Z,15.10
2023-02-21T18:59:29.138Z,14.73
2023-02-21T19:01:35.839Z,14.50
2023-02-21T19:03:44.619Z,14.60
2023-02-21T19:05:53.476Z,14.13
2023-02-21T19:08:00.547Z,14.65
2023-02-21T19:10:07.820Z,14.57
2023-02-21T19:12:15.648Z,14.05
2023-02-21T19:14:22.365Z,14.93
2023-02-21T19:16:29.643Z,14.63
2023-02-21T19:18:36.327Z,15.05
2023-02-21T19:20:45.698Z,14.88
2023-02-21T19:22:53.107Z,13.73
2023-02-21T19:25:00.341Z,15.68
2023-02-21T19:27:07.119Z,15.38
2023-02-21T19:29:14.374Z,15.18
2023-02-21T19:31:22.084Z,15.63
2023-02-21T19:33:29.107Z,15.52
2023-02-21T19:35:37.089Z,14.82
2023-02-21T19:37:45.739Z,15.93
2023-02-21T19:39:52.754Z,14.32
2023-02-21T19:41:59.986Z,14.48
2023-02-21T19:44:07.835Z,14.43
2023-02-21T19:46:24.932Z,14.52
2023-02-21T19:48:31.876Z,15.70
2023-02-21T19:50:39.005Z,15.38
2023-02-21T19:52:47.617Z,15.18
2023-02-21T19:54:54.866Z,16.08
2023-02-21T19:57:02.247Z,14.93
2023-02-21T19:59:09.420Z,15.73
2023-02-21T20:01:16.986Z,15.77
2023-02-21T20:03:24.510Z,15.05
2023-02-21T20:05:31.476Z,15.55
2023-02-21T20:07:38.709Z,15.85
2023-02-21T20:09:48.165Z,15.35
2023-02-21T20:11:55.531Z,15.18
2023-02-21T20:14:02.730Z,15.45
2023-02-21T20:16:10.015Z,15.60
2023-02-21T20:18:17.332Z,15.88
2023-02-21T20:20:24.718Z,15.20
2023-02-21T20:22:34.870Z,15.75
2023-02-21T20:24:42.410Z,16.13
2023-02-21T20:26:53.846Z,16.35
2023-02-21T20:29:01.333Z,16.50
2023-02-21T20:31:11.921Z,15.93
2023-02-21T20:33:21.634Z,15.60
2023-02-21T20:35:29.122Z,16.38
2023-02-21T20:37:36.459Z,16.77
2023-02-21T20:39:43.437Z,16.38
2023-02-21T20:41:52.512Z,17.40
2023-02-21T20:43:59.337Z,17.33
2023-02-21T20:46:06.946Z,17.25
2023-02-21T20:48:14.149Z,16.85
2023-02-21T20:50:24.326Z,17.52
2023-02-21T20:52:31.189Z,15.68
2023-02-21T20:54:38.372Z,16.65
2023-02-21T20:56:46.263Z,17.02
2023-02-21T20:58:55.801Z,17.85
2023-02-21T21:01:03.031Z,17.67
2023-02-21T21:03:15.595Z,17.27
2023-02-21T21:05:22.928Z,17.85
2023-02-21T21:07:30.722Z,18.77
2023-02-21T21:09:38.518Z,17.45
2023-02-21T21:11:47.656Z,17.52
2023-02-21T21:13:57.794Z,17.88
2023-02-21T21:16:06.133Z,18.20
2023-02-21T21:18:13.240Z,17.30
2023-02-21T21:20:22.618Z,18.70
2023-02-21T21:22:31.285Z,18.27
2023-02-21T21:24:38.771Z,17.85
2023-02-21T21:26:52.038Z,18.65
2023-02-21T21:29:02.465Z,18.13
2023-02-21T21:31:10.997Z,16.95
2023-02-21T21:33:20.554Z,18.98
2023-02-21T21:35:31.013Z,17.45
2023-02-21T21:37:39.583Z,17.27
2023-02-21T21:39:50.289Z,17.70
2023-02-21T21:41:59.623Z,17.67
2023-02-21T21:44:10.799Z,18.23
2023-02-21T21:46:18.376Z,18.38
2023-02-21T21:48:26.134Z,18.48
2023-02-21T21:50:33.214Z,18.38
2023-02-21T21:52:40.142Z,17.40
2023-02-21T21:54:47.884Z,19.08
2023-02-21T21:56:55.587Z,19.98
2023-02-21T21:59:03.723Z,18.38
2023-02-21T22:01:16.292Z,19.20
2023-02-21T22:03:23.813Z,19.00
2023-02-21T22:05:32.979Z,19.38
2023-02-21T22:07:40.192Z,19.05
2023-02-21T22:09:48.404Z,18.40
2023-02-21T22:11:55.883Z,18.63
2023-02-21T22:14:02.978Z,18.40
2023-02-21T22:16:12.512Z,19.17
2023-02-21T22:18:22.908Z,19.08
2023-02-21T22:20:32.360Z,19.73
2023-02-21T22:22:39.324Z,20.20
2023-02-21T22:24:47.217Z,19.75
2023-02-21T22:26:56.393Z,20.15
2023-02-21T22:29:07.059Z,21.30
2023-02-21T22:31:17.260Z,22.70
2023-02-21T22:33:24.750Z,21.25
2023-02-21T22:35:31.729Z,21.65
2023-02-21T22:37:39.161Z,22.58
2023-02-21T22:39:46.135Z,21.50
2023-02-21T22:41:53.267Z,21.42
2023-02-21T22:44:01.423Z,22.30
2023-02-21T22:46:09.115Z,21.67
2023-02-21T22:48:20.430Z,22.73
2023-02-21T22:52:35.387Z,22.20
2023-02-21T22:54:42.654Z,20.58
2023-02-21T22:56:53.416Z,20.67
2023-02-21T22:59:02.543Z,21.85
2023-02-21T23:01:10.134Z,20.67
2023-02-21T23:03:19.981Z,21.98
2023-02-21T23:05:27.214Z,21.52
2023-02-21T23:07:34.453Z,21.92
2023-02-21T23:09:41.421Z,21.00
2023-02-21T23:11:51.776Z,22.35
2023-02-21T23:13:58.600Z,20.00
2023-02-21T23:16:05.855Z,21.00
2023-02-21T23:18:13.476Z,21.48
2023-02-21T23:20:25.417Z,21.25
2023-02-21T23:22:32.600Z,21.45
2023-02-21T23:24:40.397Z,20.95
2023-02-21T23:26:47.886Z,21.77
2023-02-21T23:28:55.168Z,22.95
2023-02-21T23:31:02.141Z,23.48
2023-02-21T23:33:10.813Z,24.00
2023-02-21T23:35:18.864Z,23.80
2023-02-21T23:37:27.531Z,28.23
2023-02-21T23:39:34.776Z,25.05
2023-02-21T23:41:42.826Z,23.15
2023-02-21T23:43:52.363Z,22.67
2023-02-21T23:46:00.134Z,31.88
2023-02-21T23:48:08.980Z,36.38
2023-02-21T23:50:18.259Z,30.00
2023-02-21T23:52:27.180Z,29.00
2023-02-21T23:54:34.207Z,27.15
2023-02-21T23:56:47.946Z,25.55
2023-02-21T23:58:54.818Z,28.55
